sensor_id;sensor_type;location;lat;lon;timestamp;pressure;altitude;pressure_sealevel;temperature;humidity
13434;BME280;6789;47.678;9.158;2024-03-17T00:00:32;53353.25;;;-138.23;90.89
13434;BME280;6789;47.678;9.158;2024-03-17T00:05:23;53357.28;;;-138.23;90.83
13434;BME280;6789;47.678;9.158;2024-03-17T00:10:14;53309.09;;;-138.23;90.95
13434;BME280;6789;47.678;9.158;2024-03-17T00:15:06;53349.25;;;-138.23;91.43
13434;BME280;6789;47.678;9.158;2024-03-17T00:20:00;53329.16;;;-138.23;91.46
13434;BME280;6789;47.678;9.158;2024-03-17T00:25:08;53353.25;;;-138.23;91.42
13434;BME280;6789;47.678;9.158;2024-03-17T00:30:00;53355.28;;;-138.23;91.28
13434;BME280;6789;47.678;9.158;2024-03-17T00:34:52;53339.22;;;-138.23;91.78
13434;BME280;6789;47.678;9.158;2024-03-17T00:39:44;53333.19;;;-138.23;92.86
13434;BME280;6789;47.678;9.158;2024-03-17T00:44:34;53357.28;;;-138.23;95.22
13434;BME280;6789;47.678;9.158;2024-03-17T00:49:25;53361.31;;;-138.23;96.33
13434;BME280;6789;47.678;9.158;2024-03-17T00:54:16;53361.31;;;-138.23;97.49
13434;BME280;6789;47.678;9.158;2024-03-17T00:59:08;53349.25;;;-138.23;96.95
13434;BME280;6789;47.678;9.158;2024-03-17T01:03:59;53361.31;;;-138.23;96.45
13434;BME280;6789;47.678;9.158;2024-03-17T01:08:50;53373.34;;;-138.23;95.78
13434;BME280;6789;47.678;9.158;2024-03-17T01:13:42;53357.28;;;-138.23;95.79
13434;BME280;6789;47.678;9.158;2024-03-17T01:18:33;53349.25;;;-138.23;95.28
13434;BME280;6789;47.678;9.158;2024-03-17T01:23:25;53377.38;;;-138.23;94.13
13434;BME280;6789;47.678;9.158;2024-03-17T01:28:16;53325.16;;;-138.23;92.11
13434;BME280;6789;47.678;9.158;2024-03-17T01:33:07;53367.31;;;-138.23;92.47
13434;BME280;6789;47.678;9.158;2024-03-17T01:37:58;53335.19;;;-138.23;92.76
13434;BME280;6789;47.678;9.158;2024-03-17T01:42:49;53357.28;;;-138.23;93.24
13434;BME280;6789;47.678;9.158;2024-03-17T01:47:40;53327.16;;;-138.23;93.19
13434;BME280;6789;47.678;9.158;2024-03-17T01:52:32;53357.28;;;-138.23;92.93
13434;BME280;6789;47.678;9.158;2024-03-17T01:57:23;53361.31;;;-138.23;92.88
13434;BME280;6789;47.678;9.158;2024-03-17T02:02:13;53371.34;;;-138.23;93.21
13434;BME280;6789;47.678;9.158;2024-03-17T02:07:04;53353.25;;;-138.23;93.31
13434;BME280;6789;47.678;9.158;2024-03-17T02:11:55;53367.31;;;-138.23;93.48
13434;BME280;6789;47.678;9.158;2024-03-17T02:16:46;53357.28;;;-138.23;93.07
13434;BME280;6789;47.678;9.158;2024-03-17T02:21:37;53327.16;;;-138.23;92.81
13434;BME280;6789;47.678;9.158;2024-03-17T02:26:28;53335.19;;;-138.23;92.31
13434;BME280;6789;47.678;9.158;2024-03-17T02:31:19;53361.31;;;-138.23;92.21
13434;BME280;6789;47.678;9.158;2024-03-17T02:36:12;53329.16;;;-138.23;92.94
13434;BME280;6789;47.678;9.158;2024-03-17T02:41:03;53353.25;;;-138.23;92.51
13434;BME280;6789;47.678;9.158;2024-03-17T02:45:54;53355.28;;;-138.23;92.62
13434;BME280;6789;47.678;9.158;2024-03-17T02:50:45;53347.25;;;-138.23;92.90
13434;BME280;6789;47.678;9.158;2024-03-17T02:55:36;53375.34;;;-138.23;92.96
13434;BME280;6789;47.678;9.158;2024-03-17T03:00:27;53357.28;;;-138.23;93.29
13434;BME280;6789;47.678;9.158;2024-03-17T03:05:17;53341.22;;;-138.23;93.23
13434;BME280;6789;47.678;9.158;2024-03-17T03:10:09;53369.34;;;-138.23;93.20
13434;BME280;6789;47.678;9.158;2024-03-17T03:15:01;53357.28;;;-138.23;93.92
13434;BME280;6789;47.678;9.158;2024-03-17T03:19:51;53355.28;;;-138.23;94.80
13434;BME280;6789;47.678;9.158;2024-03-17T03:24:42;53341.22;;;-138.23;94.94
13434;BME280;6789;47.678;9.158;2024-03-17T03:29:33;53377.38;;;-138.23;95.95
13434;BME280;6789;47.678;9.158;2024-03-17T03:34:24;53393.44;;;-138.23;96.17
13434;BME280;6789;47.678;9.158;2024-03-17T03:39:15;53373.34;;;-138.23;96.95
13434;BME280;6789;47.678;9.158;2024-03-17T03:44:06;53371.34;;;-138.23;96.48
13434;BME280;6789;47.678;9.158;2024-03-17T03:48:57;53365.31;;;-138.23;97.00
13434;BME280;6789;47.678;9.158;2024-03-17T03:53:50;53339.22;;;-138.23;97.31
13434;BME280;6789;47.678;9.158;2024-03-17T03:58:42;53355.28;;;-138.23;97.64
13434;BME280;6789;47.678;9.158;2024-03-17T04:03:34;53361.31;;;-138.23;97.00
13434;BME280;6789;47.678;9.158;2024-03-17T04:08:26;53345.22;;;-138.23;97.49
13434;BME280;6789;47.678;9.158;2024-03-17T04:13:17;53385.41;;;-138.23;97.34
13434;BME280;6789;47.678;9.158;2024-03-17T04:18:09;53341.22;;;-138.23;97.63
13434;BME280;6789;47.678;9.158;2024-03-17T04:23:00;53409.50;;;-138.23;97.00
13434;BME280;6789;47.678;9.158;2024-03-17T04:27:51;53353.25;;;-138.23;95.11
13434;BME280;6789;47.678;9.158;2024-03-17T04:32:41;53363.31;;;-138.23;94.55
13434;BME280;6789;47.678;9.158;2024-03-17T04:37:32;53357.28;;;-138.23;95.06
13434;BME280;6789;47.678;9.158;2024-03-17T04:42:29;53377.38;;;-138.23;96.18
13434;BME280;6789;47.678;9.158;2024-03-17T04:47:20;53373.34;;;-138.23;97.12
13434;BME280;6789;47.678;9.158;2024-03-17T04:52:12;53375.34;;;-138.23;98.09
13434;BME280;6789;47.678;9.158;2024-03-17T04:57:04;53385.41;;;-138.23;98.10
13434;BME280;6789;47.678;9.158;2024-03-17T05:02:09;53381.38;;;-138.23;98.07
13434;BME280;6789;47.678;9.158;2024-03-17T05:07:00;53367.31;;;-138.23;98.81
13434;BME280;6789;47.678;9.158;2024-03-17T05:11:51;53381.38;;;-138.23;99.07
13434;BME280;6789;47.678;9.158;2024-03-17T05:16:45;53383.38;;;-138.23;98.83
13434;BME280;6789;47.678;9.158;2024-03-17T05:21:38;53357.28;;;-138.23;98.45
13434;BME280;6789;47.678;9.158;2024-03-17T05:26:29;53385.41;;;-138.23;98.90
13434;BME280;6789;47.678;9.158;2024-03-17T05:31:22;53391.41;;;-138.23;98.52
13434;BME280;6789;47.678;9.158;2024-03-17T05:36:13;53369.34;;;-138.23;99.21
13434;BME280;6789;47.678;9.158;2024-03-17T05:41:06;53429.56;;;-138.23;98.12
13434;BME280;6789;47.678;9.158;2024-03-17T05:45:58;53379.38;;;-138.23;98.31
13434;BME280;6789;47.678;9.158;2024-03-17T05:50:49;53353.25;;;-138.23;98.88
13434;BME280;6789;47.678;9.158;2024-03-17T05:55:41;53331.19;;;-138.23;98.68
13434;BME280;6789;47.678;9.158;2024-03-17T06:00:35;53355.28;;;-138.23;100.00
13434;BME280;6789;47.678;9.158;2024-03-17T06:05:26;53387.41;;;-138.23;100.00
13434;BME280;6789;47.678;9.158;2024-03-17T06:10:17;53379.38;;;-138.23;100.00
13434;BME280;6789;47.678;9.158;2024-03-17T06:15:09;53351.25;;;-138.23;100.00
13434;BME280;6789;47.678;9.158;2024-03-17T06:20:00;53385.41;;;-138.23;100.00
13434;BME280;6789;47.678;9.158;2024-03-17T06:24:53;53341.22;;;-138.23;100.00
13434;BME280;6789;47.678;9.158;2024-03-17T06:29:44;53389.41;;;-138.23;100.00
13434;BME280;6789;47.678;9.158;2024-03-17T06:34:36;53355.28;;;-138.23;100.00
13434;BME280;6789;47.678;9.158;2024-03-17T06:39:27;53381.38;;;-138.23;100.00
13434;BME280;6789;47.678;9.158;2024-03-17T06:44:18;53357.28;;;-138.23;100.00
13434;BME280;6789;47.678;9.158;2024-03-17T06:49:09;53381.38;;;-138.23;100.00
13434;BME280;6789;47.678;9.158;2024-03-17T06:54:00;53347.25;;;-138.23;100.00
13434;BME280;6789;47.678;9.158;2024-03-17T06:58:51;53363.31;;;-138.23;100.00
13434;BME280;6789;47.678;9.158;2024-03-17T07:03:42;53373.34;;;-138.23;98.69
13434;BME280;6789;47.678;9.158;2024-03-17T07:08:33;53345.22;;;-138.23;99.52
13434;BME280;6789;47.678;9.158;2024-03-17T07:13:24;53317.13;;;-138.23;96.42
13434;BME280;6789;47.678;9.158;2024-03-17T07:18:15;53311.09;;;-138.23;92.21
13434;BME280;6789;47.678;9.158;2024-03-17T07:23:07;53331.19;;;-138.23;90.96
13434;BME280;6789;47.678;9.158;2024-03-17T07:27:57;53321.13;;;-138.23;89.26
13434;BME280;6789;47.678;9.158;2024-03-17T07:32:48;53317.13;;;-138.23;87.91
13434;BME280;6789;47.678;9.158;2024-03-17T07:37:39;53323.16;;;-138.23;86.56
13434;BME280;6789;47.678;9.158;2024-03-17T07:42:32;53309.09;;;-138.23;85.32
13434;BME280;6789;47.678;9.158;2024-03-17T07:47:23;53329.16;;;-138.23;84.97
13434;BME280;6789;47.678;9.158;2024-03-17T07:52:14;53317.13;;;-138.23;85.87
13434;BME280;6789;47.678;9.158;2024-03-17T07:57:06;53301.06;;;-138.23;84.77
13434;BME280;6789;47.678;9.158;2024-03-17T08:01:59;53280.97;;;-138.23;81.76
13434;BME280;6789;47.678;9.158;2024-03-17T08:06:50;53301.06;;;-138.23;82.26
13434;BME280;6789;47.678;9.158;2024-03-17T08:11:41;53289.00;;;-138.23;81.50
13434;BME280;6789;47.678;9.158;2024-03-17T08:16:37;53248.84;;;-138.23;81.06
13434;BME280;6789;47.678;9.158;2024-03-17T08:21:27;53260.91;;;-138.23;81.18
13434;BME280;6789;47.678;9.158;2024-03-17T08:26:20;53258.88;;;-138.23;80.14
13434;BME280;6789;47.678;9.158;2024-03-17T08:31:11;53246.84;;;-138.23;80.28
13434;BME280;6789;47.678;9.158;2024-03-17T08:36:07;53272.94;;;-138.23;78.18
13434;BME280;6789;47.678;9.158;2024-03-17T08:41:06;53260.91;;;-138.23;76.44
13434;BME280;6789;47.678;9.158;2024-03-17T08:46:00;53301.06;;;-138.23;76.08
13434;BME280;6789;47.678;9.158;2024-03-17T08:50:53;53238.81;;;-138.23;76.14
13434;BME280;6789;47.678;9.158;2024-03-17T08:55:44;53268.94;;;-138.23;76.09
13434;BME280;6789;47.678;9.158;2024-03-17T09:00:36;53258.88;;;-138.23;74.89
13434;BME280;6789;47.678;9.158;2024-03-17T09:05:47;53220.75;;;-138.23;73.61
13434;BME280;6789;47.678;9.158;2024-03-17T09:10:42;53228.78;;;-138.23;71.52
13434;BME280;6789;47.678;9.158;2024-03-17T09:15:33;53212.72;;;-138.23;71.51
13434;BME280;6789;47.678;9.158;2024-03-17T09:20:24;53224.75;;;-138.23;69.81
13434;BME280;6789;47.678;9.158;2024-03-17T09:25:15;53216.72;;;-138.23;69.29
13434;BME280;6789;47.678;9.158;2024-03-17T09:30:07;53192.63;;;-138.23;68.95
13434;BME280;6789;47.678;9.158;2024-03-17T09:35:00;53228.78;;;-138.23;68.26
13434;BME280;6789;47.678;9.158;2024-03-17T09:39:51;53178.56;;;-138.23;68.05
13434;BME280;6789;47.678;9.158;2024-03-17T09:44:42;53196.63;;;-138.23;67.35
13434;BME280;6789;47.678;9.158;2024-03-17T09:49:34;53216.72;;;-138.23;67.79
13434;BME280;6789;47.678;9.158;2024-03-17T09:54:25;53188.59;;;-138.23;66.26
13434;BME280;6789;47.678;9.158;2024-03-17T09:59:16;53184.59;;;-138.23;66.12
13434;BME280;6789;47.678;9.158;2024-03-17T10:04:07;53178.56;;;-138.23;64.52
13434;BME280;6789;47.678;9.158;2024-03-17T10:09:00;53148.44;;;-138.23;63.43
13434;BME280;6789;47.678;9.158;2024-03-17T10:14:07;53176.56;;;-138.23;62.47
13434;BME280;6789;47.678;9.158;2024-03-17T10:19:21;53126.38;;;-138.23;61.42
13434;BME280;6789;47.678;9.158;2024-03-17T10:24:20;53162.50;;;-138.23;61.49
13434;BME280;6789;47.678;9.158;2024-03-17T10:29:29;53156.47;;;-138.23;60.79
13434;BME280;6789;47.678;9.158;2024-03-17T10:34:22;53176.56;;;-138.23;61.13
13434;BME280;6789;47.678;9.158;2024-03-17T10:39:28;53136.41;;;-138.23;59.71
13434;BME280;6789;47.678;9.158;2024-03-17T10:44:19;53124.34;;;-138.23;59.00
13434;BME280;6789;47.678;9.158;2024-03-17T10:49:13;53130.38;;;-138.23;58.45
13434;BME280;6789;47.678;9.158;2024-03-17T10:54:05;53112.31;;;-138.23;57.57
13434;BME280;6789;47.678;9.158;2024-03-17T10:59:01;53086.19;;;-138.23;56.66
13434;BME280;6789;47.678;9.158;2024-03-17T11:03:54;53110.31;;;-138.23;56.26
13434;BME280;6789;47.678;9.158;2024-03-17T11:08:45;53122.34;;;-138.23;55.74
13434;BME280;6789;47.678;9.158;2024-03-17T11:13:36;53098.25;;;-138.23;55.86
13434;BME280;6789;47.678;9.158;2024-03-17T11:18:36;53080.19;;;-138.23;55.68
13434;BME280;6789;47.678;9.158;2024-03-17T11:23:30;53086.19;;;-138.23;55.46
13434;BME280;6789;47.678;9.158;2024-03-17T11:38:55;53128.38;;;-138.23;55.09
13434;BME280;6789;47.678;9.158;2024-03-17T11:43:47;53106.28;;;-138.23;54.81
13434;BME280;6789;47.678;9.158;2024-03-17T11:48:38;53120.34;;;-138.23;54.94
13434;BME280;6789;47.678;9.158;2024-03-17T11:53:29;53100.25;;;-138.23;54.08
13434;BME280;6789;47.678;9.158;2024-03-17T11:58:20;53100.25;;;-138.23;54.13
13434;BME280;6789;47.678;9.158;2024-03-17T12:03:12;53096.25;;;-138.23;54.47
13434;BME280;6789;47.678;9.158;2024-03-17T12:08:04;53116.31;;;-138.23;54.60
13434;BME280;6789;47.678;9.158;2024-03-17T12:12:55;53088.22;;;-138.23;54.90
13434;BME280;6789;47.678;9.158;2024-03-17T12:17:46;53132.38;;;-138.23;55.36
13434;BME280;6789;47.678;9.158;2024-03-17T12:22:40;53128.38;;;-138.23;55.33
13434;BME280;6789;47.678;9.158;2024-03-17T12:27:33;53146.44;;;-138.23;53.27
13434;BME280;6789;47.678;9.158;2024-03-17T12:32:25;53108.28;;;-138.23;54.38
13434;BME280;6789;47.678;9.158;2024-03-17T12:37:22;53114.31;;;-138.23;54.59
13434;BME280;6789;47.678;9.158;2024-03-17T12:42:23;53118.34;;;-138.23;55.27
13434;BME280;6789;47.678;9.158;2024-03-17T12:47:19;53120.34;;;-138.23;55.92
13434;BME280;6789;47.678;9.158;2024-03-17T12:57:20;53130.38;;;-138.23;56.16
13434;BME280;6789;47.678;9.158;2024-03-17T13:02:30;53148.44;;;-138.23;56.11
13434;BME280;6789;47.678;9.158;2024-03-17T13:07:21;53124.34;;;-138.23;56.73
13434;BME280;6789;47.678;9.158;2024-03-17T13:12:15;53136.41;;;-138.23;57.11
13434;BME280;6789;47.678;9.158;2024-03-17T13:17:14;53172.53;;;-138.23;58.28
13434;BME280;6789;47.678;9.158;2024-03-17T13:22:09;53136.41;;;-138.23;59.57
13434;BME280;6789;47.678;9.158;2024-03-17T13:27:00;53152.47;;;-138.23;60.31
13434;BME280;6789;47.678;9.158;2024-03-17T13:31:56;53160.50;;;-138.23;60.93
13434;BME280;6789;47.678;9.158;2024-03-17T13:36:46;53136.41;;;-138.23;61.02
13434;BME280;6789;47.678;9.158;2024-03-17T13:41:37;53154.47;;;-138.23;60.96
13434;BME280;6789;47.678;9.158;2024-03-17T13:46:29;53144.44;;;-138.23;59.97
13434;BME280;6789;47.678;9.158;2024-03-17T13:51:20;53144.44;;;-138.23;60.58
13434;BME280;6789;47.678;9.158;2024-03-17T13:56:11;53184.59;;;-138.23;60.51
13434;BME280;6789;47.678;9.158;2024-03-17T14:01:03;53156.47;;;-138.23;62.12
13434;BME280;6789;47.678;9.158;2024-03-17T14:05:54;53186.59;;;-138.23;64.37
13434;BME280;6789;47.678;9.158;2024-03-17T14:10:45;53156.47;;;-138.23;63.89
13434;BME280;6789;47.678;9.158;2024-03-17T14:15:37;53160.50;;;-138.23;64.12
13434;BME280;6789;47.678;9.158;2024-03-17T14:20:30;53156.47;;;-138.23;64.32
13434;BME280;6789;47.678;9.158;2024-03-17T14:25:40;53136.41;;;-138.23;63.01
13434;BME280;6789;47.678;9.158;2024-03-17T14:30:30;53136.41;;;-138.23;63.46
13434;BME280;6789;47.678;9.158;2024-03-17T14:35:23;53140.41;;;-138.23;62.32
13434;BME280;6789;47.678;9.158;2024-03-17T14:40:19;53116.31;;;-138.23;62.07
13434;BME280;6789;47.678;9.158;2024-03-17T14:45:19;53148.44;;;-138.23;62.37
13434;BME280;6789;47.678;9.158;2024-03-17T14:50:12;53170.53;;;-138.23;63.08
13434;BME280;6789;47.678;9.158;2024-03-17T14:55:03;53156.47;;;-138.23;63.15
13434;BME280;6789;47.678;9.158;2024-03-17T14:59:54;53160.50;;;-138.23;62.77
13434;BME280;6789;47.678;9.158;2024-03-17T15:04:45;53170.53;;;-138.23;63.85
13434;BME280;6789;47.678;9.158;2024-03-17T15:09:36;53150.47;;;-138.23;64.35
13434;BME280;6789;47.678;9.158;2024-03-17T15:14:27;53170.53;;;-138.23;65.50
13434;BME280;6789;47.678;9.158;2024-03-17T15:24:25;53218.72;;;-138.23;68.26
13434;BME280;6789;47.678;9.158;2024-03-17T15:29:17;53212.72;;;-138.23;68.26
13434;BME280;6789;47.678;9.158;2024-03-17T15:34:08;53160.50;;;-138.23;68.08
13434;BME280;6789;47.678;9.158;2024-03-17T15:39:02;53208.69;;;-138.23;69.39
13434;BME280;6789;47.678;9.158;2024-03-17T15:43:56;53254.88;;;-138.23;69.69
13434;BME280;6789;47.678;9.158;2024-03-17T15:48:48;53216.72;;;-138.23;69.26
13434;BME280;6789;47.678;9.158;2024-03-17T15:53:39;53200.66;;;-138.23;68.75
13434;BME280;6789;47.678;9.158;2024-03-17T15:58:31;53196.63;;;-138.23;68.41
13434;BME280;6789;47.678;9.158;2024-03-17T16:03:29;53228.78;;;-138.23;67.97
13434;BME280;6789;47.678;9.158;2024-03-17T16:08:22;53204.66;;;-138.23;68.25
13434;BME280;6789;47.678;9.158;2024-03-17T16:13:15;53236.81;;;-138.23;68.82
13434;BME280;6789;47.678;9.158;2024-03-17T16:18:07;53218.72;;;-138.23;69.88
13434;BME280;6789;47.678;9.158;2024-03-17T16:22:58;53228.78;;;-138.23;69.06
13434;BME280;6789;47.678;9.158;2024-03-17T16:27:49;53268.94;;;-138.23;70.14
13434;BME280;6789;47.678;9.158;2024-03-17T16:32:42;53268.94;;;-138.23;69.41
13434;BME280;6789;47.678;9.158;2024-03-17T16:37:33;53256.88;;;-138.23;69.44
13434;BME280;6789;47.678;9.158;2024-03-17T16:42:24;53234.78;;;-138.23;70.22
13434;BME280;6789;47.678;9.158;2024-03-17T16:47:28;53270.94;;;-138.23;70.05
13434;BME280;6789;47.678;9.158;2024-03-17T16:52:19;53242.81;;;-138.23;69.94
13434;BME280;6789;47.678;9.158;2024-03-17T16:57:10;53260.91;;;-138.23;69.93
13434;BME280;6789;47.678;9.158;2024-03-17T17:02:12;53240.81;;;-138.23;69.79
13434;BME280;6789;47.678;9.158;2024-03-17T17:07:03;53244.84;;;-138.23;70.41
13434;BME280;6789;47.678;9.158;2024-03-17T17:11:54;53220.75;;;-138.23;70.77
13434;BME280;6789;47.678;9.158;2024-03-17T17:16:45;53226.75;;;-138.23;71.11
13434;BME280;6789;47.678;9.158;2024-03-17T17:21:36;53256.88;;;-138.23;71.00
13434;BME280;6789;47.678;9.158;2024-03-17T17:26:28;53260.91;;;-138.23;71.09
13434;BME280;6789;47.678;9.158;2024-03-17T17:31:19;53258.88;;;-138.23;71.38
13434;BME280;6789;47.678;9.158;2024-03-17T17:36:10;53244.84;;;-138.23;71.72
13434;BME280;6789;47.678;9.158;2024-03-17T17:41:07;53242.81;;;-138.23;72.44
13434;BME280;6789;47.678;9.158;2024-03-17T17:46:05;53301.06;;;-138.23;72.95
13434;BME280;6789;47.678;9.158;2024-03-17T17:50:56;53272.94;;;-138.23;72.95
13434;BME280;6789;47.678;9.158;2024-03-17T17:55:47;53264.91;;;-138.23;72.78
13434;BME280;6789;47.678;9.158;2024-03-17T18:00:38;53270.94;;;-138.23;73.14
13434;BME280;6789;47.678;9.158;2024-03-17T18:05:29;53240.81;;;-138.23;73.04
13434;BME280;6789;47.678;9.158;2024-03-17T18:10:21;53238.81;;;-138.23;73.17
13434;BME280;6789;47.678;9.158;2024-03-17T18:15:11;53240.81;;;-138.23;73.32
13434;BME280;6789;47.678;9.158;2024-03-17T18:20:03;53260.91;;;-138.23;73.32
13434;BME280;6789;47.678;9.158;2024-03-17T18:24:56;53250.84;;;-138.23;73.14
13434;BME280;6789;47.678;9.158;2024-03-17T18:29:47;53270.94;;;-138.23;73.41
13434;BME280;6789;47.678;9.158;2024-03-17T18:34:39;53244.84;;;-138.23;73.07
13434;BME280;6789;47.678;9.158;2024-03-17T18:39:30;53254.88;;;-138.23;73.46
13434;BME280;6789;47.678;9.158;2024-03-17T18:44:20;53260.91;;;-138.23;73.79
13434;BME280;6789;47.678;9.158;2024-03-17T18:49:11;53264.91;;;-138.23;73.30
13434;BME280;6789;47.678;9.158;2024-03-17T18:54:03;53276.97;;;-138.23;73.69
13434;BME280;6789;47.678;9.158;2024-03-17T18:58:54;53240.81;;;-138.23;74.45
13434;BME280;6789;47.678;9.158;2024-03-17T19:03:45;53264.91;;;-138.23;75.71
13434;BME280;6789;47.678;9.158;2024-03-17T19:08:36;53272.94;;;-138.23;76.27
13434;BME280;6789;47.678;9.158;2024-03-17T19:13:27;53260.91;;;-138.23;77.20
13434;BME280;6789;47.678;9.158;2024-03-17T19:18:18;53272.94;;;-138.23;77.15
13434;BME280;6789;47.678;9.158;2024-03-17T19:23:08;53240.81;;;-138.23;76.83
13434;BME280;6789;47.678;9.158;2024-03-17T19:28:00;53276.97;;;-138.23;77.51
13434;BME280;6789;47.678;9.158;2024-03-17T19:32:50;53262.91;;;-138.23;78.05
13434;BME280;6789;47.678;9.158;2024-03-17T19:37:41;53309.09;;;-138.23;78.49
13434;BME280;6789;47.678;9.158;2024-03-17T19:42:32;53248.84;;;-138.23;78.81
13434;BME280;6789;47.678;9.158;2024-03-17T19:47:23;53272.94;;;-138.23;78.37
13434;BME280;6789;47.678;9.158;2024-03-17T19:52:14;53276.97;;;-138.23;78.27
13434;BME280;6789;47.678;9.158;2024-03-17T19:57:05;53268.94;;;-138.23;79.26
13434;BME280;6789;47.678;9.158;2024-03-17T20:01:56;53258.88;;;-138.23;79.22
13434;BME280;6789;47.678;9.158;2024-03-17T20:06:47;53293.03;;;-138.23;79.85
13434;BME280;6789;47.678;9.158;2024-03-17T20:11:39;53280.97;;;-138.23;80.11
13434;BME280;6789;47.678;9.158;2024-03-17T20:16:30;53272.94;;;-138.23;80.61
13434;BME280;6789;47.678;9.158;2024-03-17T20:21:27;53285.00;;;-138.23;78.40
13434;BME280;6789;47.678;9.158;2024-03-17T20:26:18;53260.91;;;-138.23;79.20
13434;BME280;6789;47.678;9.158;2024-03-17T20:31:16;53293.03;;;-138.23;80.32
13434;BME280;6789;47.678;9.158;2024-03-17T20:36:09;53293.03;;;-138.23;80.72
13434;BME280;6789;47.678;9.158;2024-03-17T20:41:01;53274.94;;;-138.23;80.75
13434;BME280;6789;47.678;9.158;2024-03-17T20:45:54;53295.03;;;-138.23;81.18
13434;BME280;6789;47.678;9.158;2024-03-17T20:50:45;53321.13;;;-138.23;80.82
13434;BME280;6789;47.678;9.158;2024-03-17T20:55:38;53268.94;;;-138.23;79.14
13434;BME280;6789;47.678;9.158;2024-03-17T21:00:29;53242.81;;;-138.23;81.01
13434;BME280;6789;47.678;9.158;2024-03-17T21:05:23;53274.94;;;-138.23;82.78
13434;BME280;6789;47.678;9.158;2024-03-17T21:10:15;53289.00;;;-138.23;82.77
13434;BME280;6789;47.678;9.158;2024-03-17T21:15:12;53250.84;;;-138.23;82.95
13434;BME280;6789;47.678;9.158;2024-03-17T21:20:05;53293.03;;;-138.23;83.63
13434;BME280;6789;47.678;9.158;2024-03-17T21:24:56;53301.06;;;-138.23;84.05
13434;BME280;6789;47.678;9.158;2024-03-17T21:29:48;53268.94;;;-138.23;84.19
13434;BME280;6789;47.678;9.158;2024-03-17T21:34:38;53293.03;;;-138.23;81.75
13434;BME280;6789;47.678;9.158;2024-03-17T21:39:29;53341.22;;;-138.23;83.39
13434;BME280;6789;47.678;9.158;2024-03-17T21:44:20;53297.03;;;-138.23;84.34
13434;BME280;6789;47.678;9.158;2024-03-17T21:49:11;53293.03;;;-138.23;84.78
13434;BME280;6789;47.678;9.158;2024-03-17T21:54:02;53313.09;;;-138.23;84.80
13434;BME280;6789;47.678;9.158;2024-03-17T21:58:55;53272.94;;;-138.23;85.08
13434;BME280;6789;47.678;9.158;2024-03-17T22:03:46;53272.94;;;-138.23;85.06
13434;BME280;6789;47.678;9.158;2024-03-17T22:08:37;53268.94;;;-138.23;84.71
13434;BME280;6789;47.678;9.158;2024-03-17T22:13:29;53268.94;;;-138.23;83.27
13434;BME280;6789;47.678;9.158;2024-03-17T22:18:25;53280.97;;;-138.23;81.57
13434;BME280;6789;47.678;9.158;2024-03-17T22:23:16;53293.03;;;-138.23;82.16
13434;BME280;6789;47.678;9.158;2024-03-17T22:28:07;53274.94;;;-138.23;82.62
13434;BME280;6789;47.678;9.158;2024-03-17T22:32:58;53260.91;;;-138.23;83.51
13434;BME280;6789;47.678;9.158;2024-03-17T22:37:49;53295.03;;;-138.23;85.06
13434;BME280;6789;47.678;9.158;2024-03-17T22:42:40;53295.03;;;-138.23;85.46
13434;BME280;6789;47.678;9.158;2024-03-17T22:47:31;53295.03;;;-138.23;84.31
13434;BME280;6789;47.678;9.158;2024-03-17T22:52:22;53333.19;;;-138.23;83.92
13434;BME280;6789;47.678;9.158;2024-03-17T22:57:12;53307.09;;;-138.23;84.87
13434;BME280;6789;47.678;9.158;2024-03-17T23:02:04;53325.16;;;-138.23;85.87
13434;BME280;6789;47.678;9.158;2024-03-17T23:06:57;53301.06;;;-138.23;86.26
13434;BME280;6789;47.678;9.158;2024-03-17T23:11:48;53321.13;;;-138.23;85.99
13434;BME280;6789;47.678;9.158;2024-03-17T23:16:39;53285.00;;;-138.23;86.24
13434;BME280;6789;47.678;9.158;2024-03-17T23:21:30;53278.97;;;-138.23;86.53
13434;BME280;6789;47.678;9.158;2024-03-17T23:26:21;53278.97;;;-138.23;86.43
13434;BME280;6789;47.678;9.158;2024-03-17T23:31:12;53303.06;;;-138.23;86.91
13434;BME280;6789;47.678;9.158;2024-03-17T23:36:03;53315.13;;;-138.23;87.19
13434;BME280;6789;47.678;9.158;2024-03-17T23:40:54;53299.06;;;-138.23;87.59
13434;BME280;6789;47.678;9.158;2024-03-17T23:45:45;53303.06;;;-138.23;87.73
13434;BME280;6789;47.678;9.158;2024-03-17T23:50:36;53305.06;;;-138.23;87.97
13434;BME280;6789;47.678;9.158;2024-03-17T23:55:26;53341.22;;;-138.23;88.88
